PASYUHPP

Guest
Details From PASY - EARECKSON AS
To UHPP - YELIZOVO
Flight Number -
Tags decoded
Created
Modified
Stats Distance 571 nm / 1,057 km
Max Altitude 0 ft / 0 m
Waypoints 4
Social Downloads 3
Likes 0
Share VATSIM

Download

Looking for another format? Having issues loading an existing format? Contact us
Advertisement - Login to hide

Notes

Requested: PASY SYA PAAT HY UHPP Unmatched points: PAAT

Route

PASY SYA HY UHPP

ID Type Via Altitude Latitude Longitude Leg Dist Tot Dist Heading (true) Name
O PASY APT - 0 ft / 0 m 52.71222˚ 174.11362˚ - 0 nm - EARECKSON AS
SYA NDB - 0 ft / 0 m 52.72200˚ 174.06028˚ 2 nm 2 nm 287° / 287° SHEMYA NDB
HY NDB - 0 ft / 0 m 53.00028˚ 158.79333˚ 552 nm 554 nm 278° / 266° KHALAKTYRKA NDB
O UHPP APT - 0 ft / 0 m 53.16789˚ 158.45367˚ 15 nm 570 nm 310° / 309° YELIZOVO

Altitude Profile

Advertisement - Login to hide

Weather


0- 5 10 15 20 25 30 35+ Temperature / ° C

Clouds and Precipitation
Forecast for 2017-12-15 00:00 UTC. Updated 6 minutes ago

Ground ~20,000 ft ~40,000 ft Winds

PASY

Details ICAO PASY (SYA)
Name EARECKSON AS
Region USA (Alaska)
Timezone America/Adak (UTC-10.0)
Stats Elevation 98 ft / 30 m (AMSL)
Location 52.712221° 174.113618°
Runways 1
Magnetic Variation 0.445° E

METAR

PASY 142258Z 30024G29KT 7SM BKN017 BKN100 02/M01 A2880

Decode

TAF

TAF AMD PASY 142259Z 1422/1604 32020KT 4800 -SN FEW015 BKN019 640198 QNH2860INS BECMG 1511/1512 34015KT 9999 NSW SCT010 BKN020 650209 QNH2865INS TX03/1509Z TNM00/1516Z

Decode

Departure Runways

ID Width Length Bearing (true) Bearing (mag) Surface Threshold Offset Overrun Length
10 150 ft / 46 m 9,978 ft / 3,041 m 107.03° 106.58° Asphalt 0 ft / 0 m 0 ft / 0 m
28 150 ft / 46 m 9,978 ft / 3,041 m 287.06° 286.61° Asphalt 0 ft / 0 m 0 ft / 0 m

UHPP

Details ICAO UHPP (PKC)
Name YELIZOVO
Region Russia
Timezone Asia/Kamchatka (UTC+12.0)
Stats Elevation 131 ft / 40 m (AMSL)
Location 53.167886° 158.453668°
Runways 2
Magnetic Variation 6.679° W

METAR

UHPP 142300Z 32003MPS 9999 NSC M14/M20 Q1000 R34L/CLRD70 NOSIG RMK QFE746/0995

Decode

TAF

TAF UHPP 141943Z 1421/1603 34006G14MPS 9999 NSC BECMG 1510/1511 01003G08MPS

Decode

Destination Runways

ID Width Length Bearing (true) Bearing (mag) Surface Threshold Offset Overrun Length
16L 197 ft / 60 m 11,148 ft / 3,398 m 157.27° 163.95° Concrete 0 ft / 0 m 0 ft / 0 m
16R 197 ft / 60 m 8,228 ft / 2,508 m 157.39° 164.07° Concrete 0 ft / 0 m 0 ft / 0 m
34L 197 ft / 60 m 8,228 ft / 2,508 m 337.40° 344.08° Concrete 0 ft / 0 m 0 ft / 0 m
34R 197 ft / 60 m 11,148 ft / 3,398 m 337.29° 343.97° Concrete 0 ft / 0 m 0 ft / 0 m

Approach Navaids

Runway Type Ident Frequency Range Bearing (true) Bearing (mag) Slope Elevation
34R Localiser IPR 110.30 MHz 18 nm / 33 km 335.55° 342.22° - 131 ft / 40 m (AMSL)
34R Glidescope IPR 110.30 MHz 10 nm / 19 km 337.28° 343.96° 2.70° 131 ft / 40 m (AMSL)

Popular Alternatives